sensor_id;sensor_type;location;lat;lon;timestamp;P1;durP1;ratioP1;P2;durP2;ratioP2
68866;SDS011;56451;44.804;20.476;2022-08-19T00:01:21;11.23;;;6.88;;
68866;SDS011;56451;44.804;20.476;2022-08-19T00:03:47;8.73;;;6.40;;
68866;SDS011;56451;44.804;20.476;2022-08-19T00:06:13;6.47;;;5.47;;
68866;SDS011;56451;44.804;20.476;2022-08-19T00:08:40;10.70;;;6.13;;
68866;SDS011;56451;44.804;20.476;2022-08-19T00:11:06;7.82;;;6.13;;
68866;SDS011;56451;44.804;20.476;2022-08-19T00:13:33;8.00;;;6.28;;
68866;SDS011;56451;44.804;20.476;2022-08-19T00:15:59;7.43;;;5.80;;
68866;SDS011;56451;44.804;20.476;2022-08-19T00:18:25;6.28;;;5.68;;
68866;SDS011;56451;44.804;20.476;2022-08-19T00:20:52;9.98;;;5.90;;
68866;SDS011;56451;44.804;20.476;2022-08-19T00:23:18;6.90;;;5.07;;
68866;SDS011;56451;44.804;20.476;2022-08-19T00:25:44;7.13;;;5.63;;
68866;SDS011;56451;44.804;20.476;2022-08-19T00:28:10;6.17;;;5.20;;
68866;SDS011;56451;44.804;20.476;2022-08-19T00:30:36;7.90;;;6.05;;
68866;SDS011;56451;44.804;20.476;2022-08-19T00:33:02;10.00;;;6.45;;
68866;SDS011;56451;44.804;20.476;2022-08-19T00:35:28;7.32;;;5.40;;
68866;SDS011;56451;44.804;20.476;2022-08-19T00:37:55;6.30;;;4.80;;
68866;SDS011;56451;44.804;20.476;2022-08-19T00:40:21;7.47;;;5.40;;
68866;SDS011;56451;44.804;20.476;2022-08-19T00:42:47;7.63;;;5.00;;
68866;SDS011;56451;44.804;20.476;2022-08-19T00:45:14;5.47;;;4.80;;
68866;SDS011;56451;44.804;20.476;2022-08-19T00:47:44;7.90;;;6.30;;
68866;SDS011;56451;44.804;20.476;2022-08-19T00:50:11;9.60;;;8.43;;
68866;SDS011;56451;44.804;20.476;2022-08-19T00:52:41;11.57;;;7.25;;
68866;SDS011;56451;44.804;20.476;2022-08-19T00:55:13;9.55;;;7.85;;
68866;SDS011;56451;44.804;20.476;2022-08-19T00:57:44;9.73;;;7.95;;
68866;SDS011;56451;44.804;20.476;2022-08-19T01:00:16;11.38;;;8.48;;
68866;SDS011;56451;44.804;20.476;2022-08-19T01:02:44;11.03;;;8.83;;
68866;SDS011;56451;44.804;20.476;2022-08-19T01:05:14;10.38;;;8.57;;
68866;SDS011;56451;44.804;20.476;2022-08-19T01:07:46;12.93;;;9.05;;
68866;SDS011;56451;44.804;20.476;2022-08-19T01:10:17;11.65;;;9.20;;
68866;SDS011;56451;44.804;20.476;2022-08-19T01:12:47;12.18;;;8.57;;
68866;SDS011;56451;44.804;20.476;2022-08-19T01:15:14;12.07;;;8.73;;
68866;SDS011;56451;44.804;20.476;2022-08-19T01:17:43;13.93;;;8.38;;
68866;SDS011;56451;44.804;20.476;2022-08-19T01:20:12;11.95;;;8.55;;
68866;SDS011;56451;44.804;20.476;2022-08-19T01:22:43;11.93;;;8.50;;
68866;SDS011;56451;44.804;20.476;2022-08-19T01:25:12;12.88;;;7.90;;
68866;SDS011;56451;44.804;20.476;2022-08-19T01:27:41;15.17;;;8.67;;
68866;SDS011;56451;44.804;20.476;2022-08-19T01:30:09;12.63;;;8.35;;
68866;SDS011;56451;44.804;20.476;2022-08-19T01:32:40;11.25;;;7.72;;
68866;SDS011;56451;44.804;20.476;2022-08-19T01:35:06;10.27;;;8.13;;
68866;SDS011;56451;44.804;20.476;2022-08-19T01:37:46;12.10;;;8.02;;
68866;SDS011;56451;44.804;20.476;2022-08-19T01:40:15;12.33;;;8.43;;
68866;SDS011;56451;44.804;20.476;2022-08-19T01:42:42;12.77;;;8.18;;
68866;SDS011;56451;44.804;20.476;2022-08-19T01:45:08;10.55;;;7.75;;
68866;SDS011;56451;44.804;20.476;2022-08-19T01:47:35;12.70;;;7.93;;
68866;SDS011;56451;44.804;20.476;2022-08-19T01:50:02;10.30;;;9.07;;
68866;SDS011;56451;44.804;20.476;2022-08-19T01:52:30;12.33;;;8.70;;
68866;SDS011;56451;44.804;20.476;2022-08-19T01:54:56;12.95;;;8.52;;
68866;SDS011;56451;44.804;20.476;2022-08-19T01:57:22;11.27;;;8.63;;
68866;SDS011;56451;44.804;20.476;2022-08-19T01:59:47;11.50;;;8.70;;
68866;SDS011;56451;44.804;20.476;2022-08-19T02:02:13;12.63;;;8.98;;
68866;SDS011;56451;44.804;20.476;2022-08-19T02:04:39;12.35;;;8.75;;
68866;SDS011;56451;44.804;20.476;2022-08-19T02:07:06;10.73;;;8.47;;
68866;SDS011;56451;44.804;20.476;2022-08-19T02:09:33;10.82;;;7.88;;
68866;SDS011;56451;44.804;20.476;2022-08-19T02:11:59;9.88;;;7.10;;
68866;SDS011;56451;44.804;20.476;2022-08-19T02:14:26;11.60;;;7.45;;
68866;SDS011;56451;44.804;20.476;2022-08-19T02:16:52;10.88;;;6.90;;
68866;SDS011;56451;44.804;20.476;2022-08-19T02:19:18;9.00;;;6.50;;
68866;SDS011;56451;44.804;20.476;2022-08-19T02:21:43;8.93;;;6.97;;
68866;SDS011;56451;44.804;20.476;2022-08-19T02:24:09;7.97;;;6.10;;
68866;SDS011;56451;44.804;20.476;2022-08-19T02:26:35;10.88;;;6.40;;
68866;SDS011;56451;44.804;20.476;2022-08-19T02:29:01;10.10;;;5.78;;
68866;SDS011;56451;44.804;20.476;2022-08-19T02:31:27;10.07;;;6.13;;
68866;SDS011;56451;44.804;20.476;2022-08-19T02:33:56;8.10;;;6.40;;
68866;SDS011;56451;44.804;20.476;2022-08-19T02:36:23;8.38;;;6.25;;
68866;SDS011;56451;44.804;20.476;2022-08-19T02:38:50;7.97;;;6.38;;
68866;SDS011;56451;44.804;20.476;2022-08-19T02:41:23;9.68;;;6.68;;
68866;SDS011;56451;44.804;20.476;2022-08-19T02:43:54;10.53;;;6.10;;
68866;SDS011;56451;44.804;20.476;2022-08-19T02:46:22;7.65;;;5.70;;
68866;SDS011;56451;44.804;20.476;2022-08-19T02:48:53;8.85;;;6.20;;
68866;SDS011;56451;44.804;20.476;2022-08-19T02:51:21;9.65;;;6.20;;
68866;SDS011;56451;44.804;20.476;2022-08-19T02:53:53;7.18;;;5.65;;
68866;SDS011;56451;44.804;20.476;2022-08-19T02:56:20;7.53;;;6.10;;
68866;SDS011;56451;44.804;20.476;2022-08-19T02:58:46;7.30;;;5.32;;
68866;SDS011;56451;44.804;20.476;2022-08-19T03:01:23;11.73;;;5.28;;
68866;SDS011;56451;44.804;20.476;2022-08-19T03:03:52;5.30;;;4.75;;
68866;SDS011;56451;44.804;20.476;2022-08-19T03:06:19;7.38;;;4.82;;
68866;SDS011;56451;44.804;20.476;2022-08-19T03:08:46;7.70;;;4.97;;
68866;SDS011;56451;44.804;20.476;2022-08-19T03:11:35;6.18;;;4.47;;
68866;SDS011;56451;44.804;20.476;2022-08-19T03:14:01;8.38;;;4.43;;
68866;SDS011;56451;44.804;20.476;2022-08-19T03:16:28;9.50;;;4.85;;
68866;SDS011;56451;44.804;20.476;2022-08-19T03:18:56;5.80;;;4.50;;
68866;SDS011;56451;44.804;20.476;2022-08-19T03:21:26;5.20;;;4.30;;
68866;SDS011;56451;44.804;20.476;2022-08-19T03:23:54;5.82;;;4.57;;
68866;SDS011;56451;44.804;20.476;2022-08-19T03:26:21;5.05;;;4.55;;
68866;SDS011;56451;44.804;20.476;2022-08-19T03:28:47;4.45;;;3.90;;
68866;SDS011;56451;44.804;20.476;2022-08-19T03:31:15;5.90;;;4.80;;
68866;SDS011;56451;44.804;20.476;2022-08-19T03:33:47;7.40;;;4.83;;
68866;SDS011;56451;44.804;20.476;2022-08-19T03:36:14;9.80;;;4.53;;
68866;SDS011;56451;44.804;20.476;2022-08-19T03:38:43;6.57;;;4.88;;
68866;SDS011;56451;44.804;20.476;2022-08-19T03:41:13;4.90;;;4.43;;
68866;SDS011;56451;44.804;20.476;2022-08-19T03:43:41;8.27;;;4.87;;
68866;SDS011;56451;44.804;20.476;2022-08-19T03:46:11;5.93;;;4.25;;
68866;SDS011;56451;44.804;20.476;2022-08-19T03:48:39;6.47;;;4.35;;
68866;SDS011;56451;44.804;20.476;2022-08-19T03:51:07;8.23;;;4.32;;
68866;SDS011;56451;44.804;20.476;2022-08-19T03:53:40;9.82;;;4.55;;
68866;SDS011;56451;44.804;20.476;2022-08-19T03:56:07;4.50;;;3.90;;
68866;SDS011;56451;44.804;20.476;2022-08-19T03:58:35;7.13;;;4.70;;
68866;SDS011;56451;44.804;20.476;2022-08-19T04:01:06;8.57;;;4.60;;
68866;SDS011;56451;44.804;20.476;2022-08-19T04:03:36;6.43;;;4.50;;
68866;SDS011;56451;44.804;20.476;2022-08-19T04:06:10;8.80;;;4.87;;
68866;SDS011;56451;44.804;20.476;2022-08-19T04:08:42;7.07;;;4.85;;
68866;SDS011;56451;44.804;20.476;2022-08-19T04:11:11;5.40;;;4.25;;
68866;SDS011;56451;44.804;20.476;2022-08-19T04:13:39;6.38;;;4.72;;
68866;SDS011;56451;44.804;20.476;2022-08-19T04:16:05;8.77;;;4.43;;
68866;SDS011;56451;44.804;20.476;2022-08-19T04:18:32;8.95;;;5.10;;
68866;SDS011;56451;44.804;20.476;2022-08-19T04:20:59;8.30;;;5.10;;
68866;SDS011;56451;44.804;20.476;2022-08-19T04:23:26;11.70;;;4.88;;
68866;SDS011;56451;44.804;20.476;2022-08-19T04:25:53;6.25;;;4.57;;
68866;SDS011;56451;44.804;20.476;2022-08-19T04:28:20;7.07;;;4.50;;
68866;SDS011;56451;44.804;20.476;2022-08-19T04:30:50;7.30;;;4.60;;
68866;SDS011;56451;44.804;20.476;2022-08-19T04:33:20;6.45;;;4.60;;
68866;SDS011;56451;44.804;20.476;2022-08-19T04:35:48;7.32;;;4.70;;
68866;SDS011;56451;44.804;20.476;2022-08-19T04:38:16;6.55;;;4.90;;
68866;SDS011;56451;44.804;20.476;2022-08-19T04:40:47;7.67;;;4.80;;
68866;SDS011;56451;44.804;20.476;2022-08-19T04:43:33;8.88;;;5.20;;
68866;SDS011;56451;44.804;20.476;2022-08-19T04:46:04;8.48;;;5.28;;
68866;SDS011;56451;44.804;20.476;2022-08-19T04:48:31;5.95;;;4.60;;
68866;SDS011;56451;44.804;20.476;2022-08-19T04:50:58;7.40;;;4.67;;
68866;SDS011;56451;44.804;20.476;2022-08-19T04:53:25;5.53;;;4.65;;
68866;SDS011;56451;44.804;20.476;2022-08-19T04:55:55;6.57;;;5.00;;
68866;SDS011;56451;44.804;20.476;2022-08-19T04:58:23;7.10;;;4.93;;
68866;SDS011;56451;44.804;20.476;2022-08-19T05:00:52;8.05;;;4.80;;
68866;SDS011;56451;44.804;20.476;2022-08-19T05:03:19;6.50;;;4.70;;
68866;SDS011;56451;44.804;20.476;2022-08-19T05:05:46;7.57;;;5.30;;
68866;SDS011;56451;44.804;20.476;2022-08-19T05:08:16;8.35;;;4.93;;
68866;SDS011;56451;44.804;20.476;2022-08-19T05:10:45;7.65;;;5.30;;
68866;SDS011;56451;44.804;20.476;2022-08-19T05:13:12;6.53;;;4.65;;
68866;SDS011;56451;44.804;20.476;2022-08-19T05:15:40;7.80;;;5.00;;
68866;SDS011;56451;44.804;20.476;2022-08-19T05:18:06;6.97;;;4.70;;
68866;SDS011;56451;44.804;20.476;2022-08-19T05:20:50;8.25;;;4.80;;
68866;SDS011;56451;44.804;20.476;2022-08-19T05:23:35;9.82;;;4.93;;
68866;SDS011;56451;44.804;20.476;2022-08-19T05:26:01;6.33;;;4.80;;
68866;SDS011;56451;44.804;20.476;2022-08-19T05:28:27;6.22;;;4.75;;
68866;SDS011;56451;44.804;20.476;2022-08-19T05:30:53;8.05;;;4.50;;
68866;SDS011;56451;44.804;20.476;2022-08-19T05:33:21;9.75;;;4.70;;
68866;SDS011;56451;44.804;20.476;2022-08-19T05:35:47;6.17;;;4.80;;
68866;SDS011;56451;44.804;20.476;2022-08-19T05:38:15;6.65;;;5.07;;
68866;SDS011;56451;44.804;20.476;2022-08-19T05:40:42;6.63;;;5.03;;
68866;SDS011;56451;44.804;20.476;2022-08-19T05:43:12;6.88;;;4.20;;
68866;SDS011;56451;44.804;20.476;2022-08-19T05:45:41;6.93;;;4.45;;
68866;SDS011;56451;44.804;20.476;2022-08-19T05:48:09;8.23;;;5.03;;
68866;SDS011;56451;44.804;20.476;2022-08-19T05:50:37;5.75;;;5.07;;
68866;SDS011;56451;44.804;20.476;2022-08-19T05:53:04;9.30;;;5.50;;
68866;SDS011;56451;44.804;20.476;2022-08-19T05:55:30;6.57;;;4.70;;
68866;SDS011;56451;44.804;20.476;2022-08-19T05:57:56;6.03;;;4.70;;
68866;SDS011;56451;44.804;20.476;2022-08-19T06:00:22;8.20;;;5.07;;
68866;SDS011;56451;44.804;20.476;2022-08-19T06:02:48;7.18;;;4.85;;
68866;SDS011;56451;44.804;20.476;2022-08-19T06:05:14;8.93;;;5.40;;
68866;SDS011;56451;44.804;20.476;2022-08-19T06:07:40;7.10;;;5.33;;
68866;SDS011;56451;44.804;20.476;2022-08-19T06:10:07;7.33;;;5.50;;
68866;SDS011;56451;44.804;20.476;2022-08-19T06:12:35;6.03;;;5.05;;
68866;SDS011;56451;44.804;20.476;2022-08-19T06:15:03;7.18;;;5.05;;
68866;SDS011;56451;44.804;20.476;2022-08-19T06:17:35;8.25;;;5.20;;
68866;SDS011;56451;44.804;20.476;2022-08-19T06:20:02;9.90;;;4.60;;
68866;SDS011;56451;44.804;20.476;2022-08-19T06:22:51;10.10;;;5.00;;
68866;SDS011;56451;44.804;20.476;2022-08-19T06:25:17;5.70;;;4.85;;
68866;SDS011;56451;44.804;20.476;2022-08-19T06:27:44;7.90;;;4.93;;
68866;SDS011;56451;44.804;20.476;2022-08-19T06:30:10;6.70;;;4.90;;
68866;SDS011;56451;44.804;20.476;2022-08-19T06:32:37;6.30;;;4.73;;
68866;SDS011;56451;44.804;20.476;2022-08-19T06:35:03;9.85;;;5.82;;
68866;SDS011;56451;44.804;20.476;2022-08-19T06:37:30;7.85;;;5.32;;
68866;SDS011;56451;44.804;20.476;2022-08-19T06:39:56;7.72;;;5.18;;
68866;SDS011;56451;44.804;20.476;2022-08-19T06:42:22;6.57;;;5.47;;
68866;SDS011;56451;44.804;20.476;2022-08-19T06:44:49;8.65;;;5.57;;
68866;SDS011;56451;44.804;20.476;2022-08-19T06:47:16;8.93;;;5.70;;
68866;SDS011;56451;44.804;20.476;2022-08-19T06:49:44;7.70;;;5.15;;
68866;SDS011;56451;44.804;20.476;2022-08-19T06:52:10;9.97;;;5.50;;
68866;SDS011;56451;44.804;20.476;2022-08-19T06:54:38;11.48;;;6.18;;
68866;SDS011;56451;44.804;20.476;2022-08-19T06:57:04;11.05;;;6.20;;
68866;SDS011;56451;44.804;20.476;2022-08-19T06:59:32;9.48;;;6.38;;
68866;SDS011;56451;44.804;20.476;2022-08-19T07:02:00;8.13;;;6.80;;
68866;SDS011;56451;44.804;20.476;2022-08-19T07:04:30;10.23;;;5.97;;
68866;SDS011;56451;44.804;20.476;2022-08-19T07:06:58;10.52;;;6.25;;
68866;SDS011;56451;44.804;20.476;2022-08-19T07:09:25;9.10;;;6.28;;
68866;SDS011;56451;44.804;20.476;2022-08-19T07:11:51;11.02;;;6.72;;
68866;SDS011;56451;44.804;20.476;2022-08-19T07:14:19;9.02;;;6.57;;
68866;SDS011;56451;44.804;20.476;2022-08-19T07:16:47;12.13;;;6.37;;
68866;SDS011;56451;44.804;20.476;2022-08-19T07:19:15;9.02;;;6.65;;
68866;SDS011;56451;44.804;20.476;2022-08-19T07:21:42;8.57;;;6.18;;
68866;SDS011;56451;44.804;20.476;2022-08-19T07:24:08;10.15;;;6.50;;
68866;SDS011;56451;44.804;20.476;2022-08-19T07:26:38;14.73;;;6.85;;
68866;SDS011;56451;44.804;20.476;2022-08-19T07:29:06;9.40;;;6.60;;
68866;SDS011;56451;44.804;20.476;2022-08-19T07:31:32;10.90;;;6.88;;
68866;SDS011;56451;44.804;20.476;2022-08-19T07:34:02;8.65;;;7.55;;
68866;SDS011;56451;44.804;20.476;2022-08-19T07:36:31;9.27;;;6.80;;
68866;SDS011;56451;44.804;20.476;2022-08-19T07:38:59;9.32;;;6.53;;
68866;SDS011;56451;44.804;20.476;2022-08-19T07:41:26;8.63;;;7.00;;
68866;SDS011;56451;44.804;20.476;2022-08-19T07:43:54;9.75;;;7.10;;
68866;SDS011;56451;44.804;20.476;2022-08-19T07:46:20;11.93;;;7.10;;
68866;SDS011;56451;44.804;20.476;2022-08-19T07:48:47;12.02;;;7.10;;
68866;SDS011;56451;44.804;20.476;2022-08-19T07:51:19;10.43;;;7.53;;
68866;SDS011;56451;44.804;20.476;2022-08-19T07:53:47;9.20;;;7.20;;
68866;SDS011;56451;44.804;20.476;2022-08-19T07:56:15;11.02;;;7.30;;
68866;SDS011;56451;44.804;20.476;2022-08-19T07:58:43;10.93;;;6.93;;
68866;SDS011;56451;44.804;20.476;2022-08-19T08:01:11;10.13;;;6.45;;
68866;SDS011;56451;44.804;20.476;2022-08-19T08:03:39;8.38;;;6.50;;
68866;SDS011;56451;44.804;20.476;2022-08-19T08:06:24;10.53;;;6.60;;
68866;SDS011;56451;44.804;20.476;2022-08-19T08:09:09;11.23;;;6.78;;
68866;SDS011;56451;44.804;20.476;2022-08-19T08:11:41;10.88;;;7.25;;
68866;SDS011;56451;44.804;20.476;2022-08-19T08:14:14;8.35;;;6.70;;
68866;SDS011;56451;44.804;20.476;2022-08-19T08:16:46;9.90;;;6.88;;
68866;SDS011;56451;44.804;20.476;2022-08-19T08:19:12;8.40;;;6.33;;
68866;SDS011;56451;44.804;20.476;2022-08-19T08:21:40;10.60;;;6.38;;
68866;SDS011;56451;44.804;20.476;2022-08-19T08:24:07;8.32;;;6.68;;
68866;SDS011;56451;44.804;20.476;2022-08-19T08:26:33;7.50;;;6.22;;
68866;SDS011;56451;44.804;20.476;2022-08-19T08:28:59;8.10;;;6.53;;
68866;SDS011;56451;44.804;20.476;2022-08-19T08:31:25;6.88;;;6.18;;
68866;SDS011;56451;44.804;20.476;2022-08-19T08:33:51;7.72;;;6.25;;
68866;SDS011;56451;44.804;20.476;2022-08-19T08:36:17;10.40;;;6.27;;
68866;SDS011;56451;44.804;20.476;2022-08-19T08:38:43;7.65;;;6.38;;
68866;SDS011;56451;44.804;20.476;2022-08-19T08:44:05;10.40;;;6.60;;
68866;SDS011;56451;44.804;20.476;2022-08-19T08:51:42;7.57;;;6.00;;
68866;SDS011;56451;44.804;20.476;2022-08-19T08:54:14;10.13;;;6.38;;
68866;SDS011;56451;44.804;20.476;2022-08-19T08:56:44;14.50;;;6.90;;
68866;SDS011;56451;44.804;20.476;2022-08-19T08:59:15;11.43;;;7.03;;
68866;SDS011;56451;44.804;20.476;2022-08-19T09:01:42;6.63;;;5.93;;
68866;SDS011;56451;44.804;20.476;2022-08-19T09:04:08;8.18;;;6.38;;
68866;SDS011;56451;44.804;20.476;2022-08-19T09:09:39;10.93;;;6.75;;
68866;SDS011;56451;44.804;20.476;2022-08-19T09:12:41;10.20;;;6.20;;
68866;SDS011;56451;44.804;20.476;2022-08-19T09:15:17;7.75;;;6.10;;
68866;SDS011;56451;44.804;20.476;2022-08-19T09:17:48;6.85;;;5.97;;
68866;SDS011;56451;44.804;20.476;2022-08-19T09:20:16;9.00;;;6.43;;
68866;SDS011;56451;44.804;20.476;2022-08-19T09:22:44;12.60;;;6.80;;
68866;SDS011;56451;44.804;20.476;2022-08-19T09:25:13;8.75;;;6.45;;
68866;SDS011;56451;44.804;20.476;2022-08-19T09:27:43;12.00;;;6.75;;
68866;SDS011;56451;44.804;20.476;2022-08-19T09:30:32;6.90;;;6.20;;
68866;SDS011;56451;44.804;20.476;2022-08-19T09:32:57;8.07;;;6.00;;
68866;SDS011;56451;44.804;20.476;2022-08-19T09:35:24;10.07;;;6.03;;
68866;SDS011;56451;44.804;20.476;2022-08-19T09:37:51;10.18;;;6.00;;
68866;SDS011;56451;44.804;20.476;2022-08-19T09:40:18;9.02;;;5.80;;
68866;SDS011;56451;44.804;20.476;2022-08-19T09:42:44;21.17;;;6.95;;
68866;SDS011;56451;44.804;20.476;2022-08-19T09:45:16;11.27;;;6.50;;
68866;SDS011;56451;44.804;20.476;2022-08-19T09:47:45;12.32;;;6.40;;
68866;SDS011;56451;44.804;20.476;2022-08-19T09:50:12;15.02;;;6.45;;
68866;SDS011;56451;44.804;20.476;2022-08-19T09:52:38;9.82;;;5.30;;
68866;SDS011;56451;44.804;20.476;2022-08-19T09:55:05;8.73;;;4.43;;
68866;SDS011;56451;44.804;20.476;2022-08-19T09:57:32;4.43;;;4.03;;
68866;SDS011;56451;44.804;20.476;2022-08-19T09:59:58;6.95;;;4.38;;
68866;SDS011;56451;44.804;20.476;2022-08-19T10:02:24;5.72;;;4.25;;
68866;SDS011;56451;44.804;20.476;2022-08-19T10:04:50;5.90;;;4.55;;
68866;SDS011;56451;44.804;20.476;2022-08-19T10:07:35;12.07;;;5.53;;
68866;SDS011;56451;44.804;20.476;2022-08-19T10:10:03;10.40;;;5.22;;
68866;SDS011;56451;44.804;20.476;2022-08-19T10:12:31;7.15;;;5.65;;
68866;SDS011;56451;44.804;20.476;2022-08-19T10:14:58;9.43;;;6.03;;
68866;SDS011;56451;44.804;20.476;2022-08-19T10:17:25;12.43;;;5.60;;
68866;SDS011;56451;44.804;20.476;2022-08-19T10:19:52;13.63;;;6.37;;
68866;SDS011;56451;44.804;20.476;2022-08-19T10:22:18;7.53;;;5.60;;
68866;SDS011;56451;44.804;20.476;2022-08-19T10:24:47;9.07;;;5.55;;
68866;SDS011;56451;44.804;20.476;2022-08-19T10:27:14;8.57;;;6.07;;
68866;SDS011;56451;44.804;20.476;2022-08-19T10:29:41;8.20;;;6.33;;
68866;SDS011;56451;44.804;20.476;2022-08-19T10:32:07;10.75;;;7.05;;
68866;SDS011;56451;44.804;20.476;2022-08-19T10:34:35;10.00;;;6.40;;
68866;SDS011;56451;44.804;20.476;2022-08-19T10:37:02;8.98;;;6.63;;
68866;SDS011;56451;44.804;20.476;2022-08-19T10:39:31;9.95;;;5.78;;
68866;SDS011;56451;44.804;20.476;2022-08-19T10:41:59;9.23;;;6.50;;
68866;SDS011;56451;44.804;20.476;2022-08-19T10:44:29;7.63;;;6.30;;
68866;SDS011;56451;44.804;20.476;2022-08-19T10:46:55;7.38;;;5.68;;
68866;SDS011;56451;44.804;20.476;2022-08-19T10:49:21;8.48;;;5.80;;
68866;SDS011;56451;44.804;20.476;2022-08-19T10:51:49;11.88;;;6.05;;
68866;SDS011;56451;44.804;20.476;2022-08-19T10:54:33;9.27;;;5.80;;
68866;SDS011;56451;44.804;20.476;2022-08-19T10:57:18;8.35;;;5.90;;
68866;SDS011;56451;44.804;20.476;2022-08-19T10:59:44;8.68;;;6.40;;
68866;SDS011;56451;44.804;20.476;2022-08-19T11:02:10;8.37;;;6.17;;
68866;SDS011;56451;44.804;20.476;2022-08-19T11:04:37;6.90;;;6.07;;
68866;SDS011;56451;44.804;20.476;2022-08-19T11:07:05;8.00;;;5.70;;
68866;SDS011;56451;44.804;20.476;2022-08-19T11:09:31;7.25;;;6.10;;
68866;SDS011;56451;44.804;20.476;2022-08-19T11:12:04;6.35;;;5.70;;
68866;SDS011;56451;44.804;20.476;2022-08-19T11:14:31;7.77;;;6.23;;
68866;SDS011;56451;44.804;20.476;2022-08-19T11:16:59;8.43;;;6.03;;
68866;SDS011;56451;44.804;20.476;2022-08-19T11:19:25;14.30;;;5.78;;
68866;SDS011;56451;44.804;20.476;2022-08-19T11:21:51;10.23;;;6.00;;
68866;SDS011;56451;44.804;20.476;2022-08-19T11:24:18;12.52;;;6.18;;
68866;SDS011;56451;44.804;20.476;2022-08-19T11:26:49;11.27;;;6.33;;
68866;SDS011;56451;44.804;20.476;2022-08-19T11:29:17;15.60;;;6.60;;
68866;SDS011;56451;44.804;20.476;2022-08-19T11:31:46;9.68;;;6.00;;
68866;SDS011;56451;44.804;20.476;2022-08-19T11:34:15;6.93;;;5.30;;
68866;SDS011;56451;44.804;20.476;2022-08-19T11:36:44;8.68;;;5.95;;
68866;SDS011;56451;44.804;20.476;2022-08-19T11:39:11;7.20;;;5.30;;
68866;SDS011;56451;44.804;20.476;2022-08-19T11:41:39;9.65;;;5.65;;
68866;SDS011;56451;44.804;20.476;2022-08-19T11:44:05;8.45;;;5.18;;
68866;SDS011;56451;44.804;20.476;2022-08-19T11:46:33;12.05;;;5.93;;
68866;SDS011;56451;44.804;20.476;2022-08-19T11:49:00;8.77;;;5.88;;
68866;SDS011;56451;44.804;20.476;2022-08-19T11:51:29;11.57;;;6.03;;
68866;SDS011;56451;44.804;20.476;2022-08-19T11:53:55;8.95;;;6.30;;
68866;SDS011;56451;44.804;20.476;2022-08-19T11:56:23;9.13;;;5.93;;
68866;SDS011;56451;44.804;20.476;2022-08-19T11:58:51;8.35;;;6.15;;
68866;SDS011;56451;44.804;20.476;2022-08-19T12:01:18;9.77;;;6.05;;
68866;SDS011;56451;44.804;20.476;2022-08-19T12:03:47;9.07;;;5.80;;
68866;SDS011;56451;44.804;20.476;2022-08-19T12:06:15;9.32;;;6.30;;
68866;SDS011;56451;44.804;20.476;2022-08-19T12:08:57;10.13;;;6.60;;
68866;SDS011;56451;44.804;20.476;2022-08-19T12:11:26;9.25;;;5.65;;
68866;SDS011;56451;44.804;20.476;2022-08-19T12:13:53;11.85;;;5.80;;
68866;SDS011;56451;44.804;20.476;2022-08-19T12:16:22;8.57;;;6.10;;
68866;SDS011;56451;44.804;20.476;2022-08-19T12:18:50;10.18;;;6.32;;
68866;SDS011;56451;44.804;20.476;2022-08-19T12:21:17;18.27;;;6.25;;
68866;SDS011;56451;44.804;20.476;2022-08-19T12:23:53;11.10;;;6.03;;
68866;SDS011;56451;44.804;20.476;2022-08-19T12:26:20;13.85;;;6.70;;
68866;SDS011;56451;44.804;20.476;2022-08-19T12:28:46;9.23;;;6.23;;
68866;SDS011;56451;44.804;20.476;2022-08-19T12:31:13;7.75;;;6.63;;
68866;SDS011;56451;44.804;20.476;2022-08-19T12:33:40;16.23;;;6.88;;
68866;SDS011;56451;44.804;20.476;2022-08-19T12:36:07;12.68;;;6.60;;
68866;SDS011;56451;44.804;20.476;2022-08-19T12:38:35;15.68;;;7.22;;
68866;SDS011;56451;44.804;20.476;2022-08-19T12:41:02;13.50;;;6.77;;
68866;SDS011;56451;44.804;20.476;2022-08-19T12:43:31;8.95;;;6.05;;
68866;SDS011;56451;44.804;20.476;2022-08-19T12:46:01;11.55;;;5.95;;
68866;SDS011;56451;44.804;20.476;2022-08-19T12:48:27;13.05;;;6.22;;
68866;SDS011;56451;44.804;20.476;2022-08-19T12:50:54;14.20;;;6.45;;
68866;SDS011;56451;44.804;20.476;2022-08-19T12:53:20;12.13;;;6.27;;
68866;SDS011;56451;44.804;20.476;2022-08-19T12:55:46;10.65;;;5.72;;
68866;SDS011;56451;44.804;20.476;2022-08-19T12:58:11;9.53;;;6.53;;
68866;SDS011;56451;44.804;20.476;2022-08-19T13:00:38;10.88;;;6.10;;
68866;SDS011;56451;44.804;20.476;2022-08-19T13:03:04;8.93;;;5.95;;
68866;SDS011;56451;44.804;20.476;2022-08-19T13:05:31;9.60;;;5.60;;
68866;SDS011;56451;44.804;20.476;2022-08-19T13:07:58;9.02;;;5.82;;
68866;SDS011;56451;44.804;20.476;2022-08-19T13:10:27;9.20;;;5.40;;
68866;SDS011;56451;44.804;20.476;2022-08-19T13:13:00;8.70;;;5.55;;
68866;SDS011;56451;44.804;20.476;2022-08-19T13:15:33;10.05;;;5.55;;
68866;SDS011;56451;44.804;20.476;2022-08-19T13:18:00;10.15;;;6.22;;
68866;SDS011;56451;44.804;20.476;2022-08-19T13:20:26;8.30;;;5.35;;
68866;SDS011;56451;44.804;20.476;2022-08-19T13:22:53;8.90;;;5.33;;
68866;SDS011;56451;44.804;20.476;2022-08-19T13:25:20;11.07;;;5.88;;
68866;SDS011;56451;44.804;20.476;2022-08-19T13:27:46;9.70;;;5.60;;
68866;SDS011;56451;44.804;20.476;2022-08-19T13:30:15;9.40;;;5.45;;
68866;SDS011;56451;44.804;20.476;2022-08-19T13:33:00;12.45;;;5.63;;
68866;SDS011;56451;44.804;20.476;2022-08-19T13:35:36;15.10;;;6.33;;
68866;SDS011;56451;44.804;20.476;2022-08-19T13:38:07;14.18;;;6.22;;
68866;SDS011;56451;44.804;20.476;2022-08-19T13:40:33;18.42;;;7.15;;
68866;SDS011;56451;44.804;20.476;2022-08-19T13:42:59;11.63;;;6.13;;
68866;SDS011;56451;44.804;20.476;2022-08-19T13:45:27;11.82;;;5.80;;
68866;SDS011;56451;44.804;20.476;2022-08-19T13:47:54;10.40;;;5.17;;
68866;SDS011;56451;44.804;20.476;2022-08-19T13:50:22;9.75;;;5.43;;
68866;SDS011;56451;44.804;20.476;2022-08-19T13:52:52;11.82;;;5.50;;
68866;SDS011;56451;44.804;20.476;2022-08-19T13:55:19;9.95;;;5.53;;
68866;SDS011;56451;44.804;20.476;2022-08-19T13:57:45;10.15;;;5.95;;
68866;SDS011;56451;44.804;20.476;2022-08-19T14:00:13;9.63;;;5.57;;
68866;SDS011;56451;44.804;20.476;2022-08-19T14:02:44;12.18;;;6.65;;
68866;SDS011;56451;44.804;20.476;2022-08-19T14:05:11;12.40;;;6.20;;
68866;SDS011;56451;44.804;20.476;2022-08-19T14:07:38;13.48;;;6.47;;
68866;SDS011;56451;44.804;20.476;2022-08-19T14:10:05;10.97;;;5.90;;
68866;SDS011;56451;44.804;20.476;2022-08-19T14:12:33;9.43;;;5.10;;
68866;SDS011;56451;44.804;20.476;2022-08-19T14:14:59;10.82;;;5.85;;
68866;SDS011;56451;44.804;20.476;2022-08-19T14:17:26;9.00;;;5.47;;
68866;SDS011;56451;44.804;20.476;2022-08-19T14:19:59;8.10;;;5.37;;
68866;SDS011;56451;44.804;20.476;2022-08-19T14:22:27;9.32;;;5.40;;
68866;SDS011;56451;44.804;20.476;2022-08-19T14:24:53;11.40;;;5.68;;
68866;SDS011;56451;44.804;20.476;2022-08-19T14:27:19;12.23;;;5.93;;
68866;SDS011;56451;44.804;20.476;2022-08-19T14:29:44;10.88;;;5.97;;
68866;SDS011;56451;44.804;20.476;2022-08-19T14:32:10;9.57;;;5.90;;
68866;SDS011;56451;44.804;20.476;2022-08-19T14:34:37;11.85;;;6.30;;
68866;SDS011;56451;44.804;20.476;2022-08-19T14:37:03;11.90;;;6.60;;
68866;SDS011;56451;44.804;20.476;2022-08-19T14:39:29;11.45;;;5.80;;
68866;SDS011;56451;44.804;20.476;2022-08-19T14:41:55;16.10;;;6.20;;
68866;SDS011;56451;44.804;20.476;2022-08-19T14:44:21;13.20;;;6.40;;
68866;SDS011;56451;44.804;20.476;2022-08-19T14:46:47;10.38;;;6.05;;